createdAt,value
2022-10-22T04:03:00.640Z,98551.84
2022-10-22T04:07:12.276Z,98559.91
2022-10-22T04:11:23.776Z,98555.84
2022-10-22T04:15:35.368Z,98571.28
2022-10-22T04:19:46.908Z,98565.78
2022-10-22T04:23:58.711Z,98567.59
2022-10-22T04:28:10.281Z,98566.41
2022-10-22T04:32:21.859Z,98570.59
2022-10-22T04:36:33.793Z,98575.03
2022-10-22T04:40:45.305Z,98573.94
2022-10-22T04:44:56.812Z,98570.09
2022-10-22T04:49:08.336Z,98567.84
2022-10-22T04:53:19.856Z,98575.19
2022-10-22T04:57:31.541Z,98570.03
2022-10-22T05:01:44.479Z,98577.97
2022-10-22T05:05:55.955Z,98586.75
2022-10-22T05:10:08.109Z,98592.78
2022-10-22T05:14:23.524Z,98588.56
2022-10-22T05:18:39.397Z,98597.41
2022-10-22T05:22:50.952Z,98602.38
2022-10-22T05:27:02.639Z,98605.00
2022-10-22T05:31:15.203Z,98616.78
2022-10-22T05:35:26.753Z,98613.25
2022-10-22T05:39:40.737Z,98619.28
2022-10-22T05:43:55.370Z,98616.44
2022-10-22T05:48:08.171Z,98612.72
2022-10-22T05:52:19.724Z,98615.06
2022-10-22T05:56:32.131Z,98630.56
2022-10-22T06:00:43.663Z,98634.19
2022-10-22T06:04:55.601Z,98626.16
2022-10-22T06:09:14.892Z,98628.97
2022-10-22T06:13:26.599Z,98637.00
2022-10-22T06:17:38.132Z,98637.81
2022-10-22T06:21:49.715Z,98655.84
2022-10-22T06:26:01.608Z,98652.47
2022-10-22T06:30:13.350Z,98649.13
2022-10-22T06:34:25.222Z,98652.69
2022-10-22T06:38:36.730Z,98655.84
2022-10-22T06:42:48.275Z,98664.44
2022-10-22T06:47:00.030Z,98679.31
2022-10-22T06:51:12.500Z,98681.94
2022-10-22T06:55:24.049Z,98693.22
2022-10-22T06:59:35.622Z,98700.25
2022-10-22T07:03:49.641Z,98712.00
2022-10-22T07:08:01.142Z,98729.78
2022-10-22T07:12:13.722Z,98731.31
2022-10-22T07:16:29.686Z,98743.41
2022-10-22T07:20:43.603Z,98745.19
2022-10-22T07:24:55.095Z,98761.34
2022-10-22T07:29:06.703Z,98759.44
2022-10-22T07:33:18.198Z,98761.94
2022-10-22T07:37:29.707Z,98773.38
2022-10-22T07:41:41.190Z,98777.91
2022-10-22T07:45:52.812Z,98779.06
2022-10-22T07:50:04.767Z,98772.72
2022-10-22T07:54:16.618Z,98786.81
2022-10-22T07:58:28.121Z,98783.72
2022-10-22T08:02:40.071Z,98774.41
2022-10-22T08:06:51.779Z,98785.59
2022-10-22T08:11:03.506Z,98785.97
2022-10-22T08:15:15.073Z,98788.97
2022-10-22T08:19:28.603Z,98786.81
2022-10-22T08:23:40.220Z,98802.72
2022-10-22T08:27:51.775Z,98808.41
2022-10-22T08:32:03.466Z,98812.41
2022-10-22T08:36:15.018Z,98822.50
2022-10-22T08:40:31.848Z,98822.50
2022-10-22T08:45:19.377Z,98817.06
2022-10-22T08:49:41.295Z,98845.16
2022-10-22T08:54:17.205Z,98836.25
2022-10-22T08:58:53.547Z,98837.88
2022-10-22T09:03:34.800Z,98853.63
2022-10-22T09:07:50.170Z,98841.25
2022-10-22T09:12:04.626Z,98849.94
2022-10-22T09:16:22.071Z,98857.81
2022-10-22T09:20:49.510Z,98857.91
2022-10-22T09:25:21.315Z,98857.69
2022-10-22T09:29:33.907Z,98851.69
2022-10-22T09:33:50.428Z,98855.81
2022-10-22T09:38:08.405Z,98854.34
2022-10-22T09:42:22.184Z,98859.25
2022-10-22T09:46:39.756Z,98855.50
2022-10-22T09:51:16.460Z,98861.84
2022-10-22T09:55:28.368Z,98872.44
2022-10-22T09:59:47.356Z,98878.38
2022-10-22T10:04:11.663Z,98868.28
2022-10-22T10:08:24.262Z,98876.41
2022-10-22T10:12:59.876Z,98873.78
2022-10-22T10:17:22.133Z,98885.38
2022-10-22T10:21:47.434Z,98891.69
2022-10-22T10:26:09.697Z,98890.03
2022-10-22T10:30:24.025Z,98897.34
2022-10-22T10:35:26.219Z,98894.94
2022-10-22T10:39:37.656Z,98884.25
2022-10-22T10:44:26.832Z,98887.13
2022-10-22T10:48:59.601Z,98891.41
2022-10-22T10:53:16.967Z,98895.88
2022-10-22T10:57:44.288Z,98886.34
2022-10-22T11:01:58.870Z,98873.94
2022-10-22T11:06:14.575Z,98882.47
2022-10-22T11:10:29.004Z,98871.53
2022-10-22T11:15:08.096Z,98874.38
2022-10-22T11:19:23.129Z,98872.31
2022-10-22T11:23:48.155Z,98861.34
2022-10-22T11:28:11.642Z,98862.97
2022-10-22T11:32:26.356Z,98857.25
2022-10-22T11:36:39.188Z,98856.50
2022-10-22T11:40:58.965Z,98844.16
2022-10-22T11:45:13.479Z,98857.38
2022-10-22T11:49:46.524Z,98850.13
2022-10-22T11:54:01.331Z,98842.56
2022-10-22T11:58:28.075Z,98837.72
2022-10-22T12:02:42.818Z,98837.31
2022-10-22T12:07:02.224Z,98831.06
2022-10-22T12:11:15.481Z,98832.09
2022-10-22T12:15:28.523Z,98835.28
2022-10-22T12:19:43.924Z,98837.09
2022-10-22T12:23:55.620Z,98828.72
2022-10-22T12:28:12.517Z,98832.41
2022-10-22T12:32:33.379Z,98825.06
2022-10-22T12:36:47.959Z,98817.66
2022-10-22T12:40:59.460Z,98819.19
2022-10-22T12:45:10.942Z,98812.47
2022-10-22T12:49:36.397Z,98808.00
2022-10-22T12:53:54.265Z,98801.75
2022-10-22T12:58:07.230Z,98798.31
2022-10-22T13:02:24.771Z,98793.50
2022-10-22T13:06:36.591Z,98797.44
2022-10-22T13:10:53.771Z,98791.16
2022-10-22T13:15:30.086Z,98784.38
2022-10-22T13:19:43.723Z,98782.94
2022-10-22T13:24:22.476Z,98779.00
2022-10-22T13:28:34.020Z,98784.09
2022-10-22T13:32:51.660Z,98783.34
2022-10-22T13:37:03.743Z,98788.09
2022-10-22T13:41:24.120Z,98783.75
2022-10-22T13:45:35.630Z,98786.91
2022-10-22T13:49:47.567Z,98791.47
2022-10-22T13:53:59.181Z,98787.78
2022-10-22T14:02:29.045Z,98787.31
2022-10-22T14:06:40.614Z,98787.06
2022-10-22T14:10:52.645Z,98787.06
2022-10-22T14:15:04.496Z,98786.63
2022-10-22T14:19:18.135Z,98783.72
2022-10-22T14:23:31.261Z,98782.47
2022-10-22T14:27:43.617Z,98786.97
2022-10-22T14:31:56.225Z,98781.69
2022-10-22T14:36:11.840Z,98778.47
2022-10-22T14:40:23.347Z,98779.38
2022-10-22T14:44:34.847Z,98781.22
2022-10-22T14:48:46.395Z,98770.28
2022-10-22T14:52:59.716Z,98779.84
2022-10-22T14:57:11.381Z,98772.66
2022-10-22T15:01:22.897Z,98774.38
2022-10-22T15:05:36.156Z,98775.69
2022-10-22T15:09:47.648Z,98782.50
2022-10-22T15:13:59.134Z,98776.28
2022-10-22T15:18:10.638Z,98776.56
2022-10-22T15:22:22.534Z,98780.09
2022-10-22T15:26:34.217Z,98777.09
2022-10-22T15:30:51.898Z,98770.47
2022-10-22T15:35:05.704Z,98772.56
2022-10-22T15:39:17.760Z,98779.09
2022-10-22T15:43:29.261Z,98775.94
2022-10-22T15:47:47.344Z,98775.78
2022-10-22T15:51:59.367Z,98772.19
2022-10-22T15:56:14.340Z,98776.50
2022-10-22T16:00:25.842Z,98773.69
2022-10-22T16:04:38.209Z,98783.47
2022-10-22T16:08:49.828Z,98781.47
2022-10-22T16:13:01.384Z,98783.72
2022-10-22T16:17:13.068Z,98780.50
2022-10-22T16:21:24.805Z,98781.13
2022-10-22T16:25:43.300Z,98788.22
2022-10-22T16:29:54.879Z,98792.47
2022-10-22T16:34:07.259Z,98786.72
2022-10-22T16:38:19.014Z,98802.09
2022-10-22T16:42:30.499Z,98790.28
2022-10-22T16:46:42.073Z,98798.16
2022-10-22T16:50:53.616Z,98806.00
2022-10-22T16:55:05.517Z,98813.25
2022-10-22T16:59:16.999Z,98818.53
2022-10-22T17:03:28.553Z,98818.88
2022-10-22T17:07:40.131Z,98826.47
2022-10-22T17:11:51.672Z,98833.91
2022-10-22T17:16:05.423Z,98837.28
2022-10-22T17:20:16.966Z,98829.91
2022-10-22T17:24:28.465Z,98833.69
2022-10-22T17:28:40.013Z,98825.31
2022-10-22T17:32:51.668Z,98833.34
2022-10-22T17:37:03.158Z,98836.91
2022-10-22T17:41:20.461Z,98843.09
2022-10-22T17:45:32.059Z,98835.72
2022-10-22T17:49:43.578Z,98843.72
2022-10-22T17:53:55.418Z,98839.41
2022-10-22T17:58:06.983Z,98832.47
2022-10-22T18:02:18.983Z,98833.28
2022-10-22T18:06:31.370Z,98842.06
2022-10-22T18:10:43.101Z,98845.63
2022-10-22T18:14:54.665Z,98839.13
2022-10-22T18:19:06.195Z,98838.94
2022-10-22T18:23:18.610Z,98844.28
2022-10-22T18:27:30.401Z,98831.81
2022-10-22T18:31:41.900Z,98837.41
2022-10-22T18:35:53.453Z,98843.03
2022-10-22T18:40:05.592Z,98842.50
2022-10-22T18:44:17.874Z,98841.84
2022-10-22T18:48:29.364Z,98841.41
2022-10-22T18:52:41.029Z,98835.81
2022-10-22T18:56:55.625Z,98837.63
2022-10-22T19:01:09.857Z,98843.88
2022-10-22T19:05:21.904Z,98842.50
2022-10-22T19:09:33.440Z,98839.66
2022-10-22T19:13:44.929Z,98834.13
2022-10-22T19:17:56.538Z,98825.81
2022-10-22T19:22:08.057Z,98827.63
2022-10-22T19:26:21.419Z,98824.72
2022-10-22T19:30:32.944Z,98820.84
2022-10-22T19:34:44.548Z,98817.28
2022-10-22T19:38:57.267Z,98826.53
2022-10-22T19:43:08.767Z,98833.13
2022-10-22T19:47:20.283Z,98826.59
2022-10-22T19:51:35.616Z,98835.72
2022-10-22T19:55:47.124Z,98827.31
2022-10-22T19:59:58.626Z,98819.91
2022-10-22T20:04:15.054Z,98828.22
2022-10-22T20:08:26.546Z,98827.41
2022-10-22T20:12:38.049Z,98833.47
2022-10-22T20:16:49.616Z,98828.28
2022-10-22T20:21:06.270Z,98830.81
2022-10-22T20:25:17.928Z,98827.72
2022-10-22T20:29:29.423Z,98825.63
2022-10-22T20:33:40.994Z,98837.63
2022-10-22T20:37:52.484Z,98837.50
2022-10-22T20:42:04.130Z,98838.22
2022-10-22T20:46:22.911Z,98843.44
2022-10-22T20:50:34.513Z,98832.72
2022-10-22T20:54:46.038Z,98837.97
2022-10-22T20:59:05.189Z,98836.69
2022-10-22T21:03:16.738Z,98831.47
2022-10-22T21:07:28.258Z,98824.75
2022-10-22T21:11:41.514Z,98834.78
2022-10-22T21:15:53.049Z,98830.59
2022-10-22T21:20:04.996Z,98833.25
2022-10-22T21:24:16.542Z,98843.88
